Archival Weather

Norman Y Mineta San Jose Intl

San Jose, California (KSJC)

Report from: Saturday, February 10, 2024 3:53 PM PST
Current time: Friday, June 14, 2024 6:40 AM PDT

Current weather – Weather history – Daily summaries
Weather forecast

Temperature17.2°C (63.0°F)
Dew point0.0°C (32.0°F)
Winds 3 kts (1.5 m/s, 3.5 mph) Vrb
Winds variableWinds variable
Visibility10 mi. (16.1 km)
Clouds Few clouds 2,400 ft. (732 m)
Altimeter30.12 in.Hg (1020 mB)
Relative humidity31 %
Density altitude138 ft. (42 m)
Sea-level pressure102.0 kPa (1020 mB, 30.11 in.Hg)
Max temp last 6 hours17.8°C (64.0°F)
Min temp last 6 hours12.8°C (55.0°F)
Remarks Automated weather observing station with precipitation discriminator
Pressure falling more slowly
Flight conditions Visual Meteorological Conditions
Raw dataKSJC 102353Z VRB03KT 10SM FEW024 17/00 A3012 RMK AO2 SLP197 T01720000 10178 20128 56006
An error has occurred. This application may no longer respond until reloaded. Reload 🗙